Terminal Aerodrome Forecast
Issued by NWS Goodland, KS

Home | Current Version | Previous Version | Text Only | Print | Product List | Glossary On
Versions: 1 2 3 4 5 6 7 8 9 10 11 12 13 14 15 16 17 18 19 20 21
000
FTUS43 KGLD 281128
TAFGLD
TAF
KGLD 281128Z 2812/2912 02008KT P6SM SCT020 SCT070
     FM281800 04008KT P6SM BKN090
     FM290100 VRB04KT P6SM SKC
     FM290800 24006KT P6SM SKC=

USA.gov is the U.S. government's official web portal to all federal, state and local government web resources and services.